sensor_id;sensor_type;location;lat;lon;timestamp;temperature;humidity
1083;DHT22;530;51.448;7.238;2022-07-29T00:02:23;19.70;95.60
1083;DHT22;530;51.448;7.238;2022-07-29T00:04:49;19.60;95.80
1083;DHT22;530;51.448;7.238;2022-07-29T00:07:15;19.60;96.00
1083;DHT22;530;51.448;7.238;2022-07-29T00:09:40;19.50;96.10
1083;DHT22;530;51.448;7.238;2022-07-29T00:12:06;19.60;96.10
1083;DHT22;530;51.448;7.238;2022-07-29T00:14:32;19.50;95.80
1083;DHT22;530;51.448;7.238;2022-07-29T00:16:58;19.50;96.00
1083;DHT22;530;51.448;7.238;2022-07-29T00:19:23;19.50;96.00
1083;DHT22;530;51.448;7.238;2022-07-29T00:21:49;19.50;96.10
1083;DHT22;530;51.448;7.238;2022-07-29T00:24:15;19.50;96.10
1083;DHT22;530;51.448;7.238;2022-07-29T00:26:40;19.50;96.00
1083;DHT22;530;51.448;7.238;2022-07-29T00:29:06;19.50;95.90
1083;DHT22;530;51.448;7.238;2022-07-29T00:31:32;19.50;96.10
1083;DHT22;530;51.448;7.238;2022-07-29T00:33:57;19.50;96.30
1083;DHT22;530;51.448;7.238;2022-07-29T00:36:23;19.40;96.10
1083;DHT22;530;51.448;7.238;2022-07-29T00:38:50;19.40;96.40
1083;DHT22;530;51.448;7.238;2022-07-29T00:41:17;19.50;96.20
1083;DHT22;530;51.448;7.238;2022-07-29T00:43:43;19.40;96.20
1083;DHT22;530;51.448;7.238;2022-07-29T00:46:09;19.40;96.60
1083;DHT22;530;51.448;7.238;2022-07-29T00:48:35;19.40;96.50
1083;DHT22;530;51.448;7.238;2022-07-29T00:51:02;19.30;96.60
1083;DHT22;530;51.448;7.238;2022-07-29T00:53:30;19.30;96.70
1083;DHT22;530;51.448;7.238;2022-07-29T00:55:57;19.30;96.80
1083;DHT22;530;51.448;7.238;2022-07-29T00:58:23;19.30;96.70
1083;DHT22;530;51.448;7.238;2022-07-29T01:00:49;19.30;96.80
1083;DHT22;530;51.448;7.238;2022-07-29T01:03:15;19.30;96.80
1083;DHT22;530;51.448;7.238;2022-07-29T01:05:43;19.30;96.90
1083;DHT22;530;51.448;7.238;2022-07-29T01:08:11;19.30;96.70
1083;DHT22;530;51.448;7.238;2022-07-29T01:10:38;19.20;96.80
1083;DHT22;530;51.448;7.238;2022-07-29T01:13:05;19.20;96.70
1083;DHT22;530;51.448;7.238;2022-07-29T01:15:33;19.20;96.70
1083;DHT22;530;51.448;7.238;2022-07-29T01:18:12;19.10;96.90
1083;DHT22;530;51.448;7.238;2022-07-29T01:21:07;19.20;96.80
1083;DHT22;530;51.448;7.238;2022-07-29T01:34:21;19.10;97.20
1083;DHT22;530;51.448;7.238;2022-07-29T01:36:55;19.00;97.10
1083;DHT22;530;51.448;7.238;2022-07-29T01:39:27;19.00;97.40
1083;DHT22;530;51.448;7.238;2022-07-29T01:42:06;19.00;97.40
1083;DHT22;530;51.448;7.238;2022-07-29T01:44:56;19.00;97.50
1083;DHT22;530;51.448;7.238;2022-07-29T01:47:26;19.10;97.40
1083;DHT22;530;51.448;7.238;2022-07-29T01:49:58;19.00;97.30
1083;DHT22;530;51.448;7.238;2022-07-29T01:52:34;19.00;97.70
1083;DHT22;530;51.448;7.238;2022-07-29T01:55:07;18.90;97.80
1083;DHT22;530;51.448;7.238;2022-07-29T01:57:36;18.80;98.10
1083;DHT22;530;51.448;7.238;2022-07-29T02:00:04;18.80;98.00
1083;DHT22;530;51.448;7.238;2022-07-29T02:02:31;18.80;97.90
1083;DHT22;530;51.448;7.238;2022-07-29T02:05:00;18.80;98.10
1083;DHT22;530;51.448;7.238;2022-07-29T02:07:28;18.80;98.10
1083;DHT22;530;51.448;7.238;2022-07-29T02:09:57;18.70;98.70
1083;DHT22;530;51.448;7.238;2022-07-29T02:12:25;18.70;98.60
1083;DHT22;530;51.448;7.238;2022-07-29T02:14:54;18.70;98.50
1083;DHT22;530;51.448;7.238;2022-07-29T02:17:25;18.70;98.60
1083;DHT22;530;51.448;7.238;2022-07-29T02:19:56;18.60;98.90
1083;DHT22;530;51.448;7.238;2022-07-29T02:22:24;18.60;99.00
1083;DHT22;530;51.448;7.238;2022-07-29T02:24:51;18.60;99.20
1083;DHT22;530;51.448;7.238;2022-07-29T02:27:19;18.50;99.40
1083;DHT22;530;51.448;7.238;2022-07-29T02:29:46;18.60;99.30
1083;DHT22;530;51.448;7.238;2022-07-29T02:32:14;18.60;99.30
1083;DHT22;530;51.448;7.238;2022-07-29T02:34:42;18.60;99.10
1083;DHT22;530;51.448;7.238;2022-07-29T02:37:11;18.60;99.30
1083;DHT22;530;51.448;7.238;2022-07-29T02:39:40;18.50;99.40
1083;DHT22;530;51.448;7.238;2022-07-29T02:42:11;18.40;99.40
1083;DHT22;530;51.448;7.238;2022-07-29T02:44:38;18.40;99.70
1083;DHT22;530;51.448;7.238;2022-07-29T02:47:13;18.40;99.90
1083;DHT22;530;51.448;7.238;2022-07-29T02:49:57;18.30;99.80
1083;DHT22;530;51.448;7.238;2022-07-29T02:52:41;18.30;99.90
1083;DHT22;530;51.448;7.238;2022-07-29T02:55:18;18.30;99.90
1083;DHT22;530;51.448;7.238;2022-07-29T02:57:51;18.30;99.90
1083;DHT22;530;51.448;7.238;2022-07-29T03:00:21;18.20;99.90
1083;DHT22;530;51.448;7.238;2022-07-29T03:02:52;18.30;99.90
1083;DHT22;530;51.448;7.238;2022-07-29T03:05:21;18.30;99.90
1083;DHT22;530;51.448;7.238;2022-07-29T03:07:53;18.40;99.90
1083;DHT22;530;51.448;7.238;2022-07-29T03:10:21;18.30;99.90
1083;DHT22;530;51.448;7.238;2022-07-29T03:12:47;18.30;99.90
1083;DHT22;530;51.448;7.238;2022-07-29T03:15:14;18.40;99.90
1083;DHT22;530;51.448;7.238;2022-07-29T03:17:40;18.40;99.90
1083;DHT22;530;51.448;7.238;2022-07-29T03:20:08;18.40;99.90
1083;DHT22;530;51.448;7.238;2022-07-29T03:22:42;18.30;99.90
1083;DHT22;530;51.448;7.238;2022-07-29T03:25:10;18.30;99.90
1083;DHT22;530;51.448;7.238;2022-07-29T03:27:36;18.20;99.90
1083;DHT22;530;51.448;7.238;2022-07-29T03:30:03;18.20;99.90
1083;DHT22;530;51.448;7.238;2022-07-29T03:32:28;18.10;99.90
1083;DHT22;530;51.448;7.238;2022-07-29T03:34:54;18.10;99.90
1083;DHT22;530;51.448;7.238;2022-07-29T03:37:20;18.20;99.90
1083;DHT22;530;51.448;7.238;2022-07-29T03:39:46;18.20;99.90
1083;DHT22;530;51.448;7.238;2022-07-29T03:42:15;18.20;99.90
1083;DHT22;530;51.448;7.238;2022-07-29T03:44:43;18.20;99.90
1083;DHT22;530;51.448;7.238;2022-07-29T03:47:11;18.10;99.90
1083;DHT22;530;51.448;7.238;2022-07-29T03:49:40;18.20;99.90
1083;DHT22;530;51.448;7.238;2022-07-29T03:52:06;18.20;99.90
1083;DHT22;530;51.448;7.238;2022-07-29T03:54:33;18.30;99.90
1083;DHT22;530;51.448;7.238;2022-07-29T03:57:01;18.30;99.90
1083;DHT22;530;51.448;7.238;2022-07-29T03:59:27;18.30;99.90
1083;DHT22;530;51.448;7.238;2022-07-29T04:01:56;18.30;99.90
1083;DHT22;530;51.448;7.238;2022-07-29T04:04:22;18.20;99.90
1083;DHT22;530;51.448;7.238;2022-07-29T04:06:48;18.30;99.90
1083;DHT22;530;51.448;7.238;2022-07-29T04:09:14;18.30;99.90
1083;DHT22;530;51.448;7.238;2022-07-29T04:11:41;18.30;99.90
1083;DHT22;530;51.448;7.238;2022-07-29T04:14:07;18.30;99.90
1083;DHT22;530;51.448;7.238;2022-07-29T04:16:32;18.40;99.90
1083;DHT22;530;51.448;7.238;2022-07-29T04:18:58;18.40;99.90
1083;DHT22;530;51.448;7.238;2022-07-29T04:21:24;18.40;99.90
1083;DHT22;530;51.448;7.238;2022-07-29T04:23:50;18.30;99.90
1083;DHT22;530;51.448;7.238;2022-07-29T04:26:17;18.30;99.90
1083;DHT22;530;51.448;7.238;2022-07-29T04:28:42;18.30;99.90
1083;DHT22;530;51.448;7.238;2022-07-29T04:31:09;18.30;99.90
1083;DHT22;530;51.448;7.238;2022-07-29T04:33:35;18.30;99.90
1083;DHT22;530;51.448;7.238;2022-07-29T04:36:00;18.30;99.90
1083;DHT22;530;51.448;7.238;2022-07-29T04:38:26;18.30;99.90
1083;DHT22;530;51.448;7.238;2022-07-29T04:40:52;18.30;99.90
1083;DHT22;530;51.448;7.238;2022-07-29T04:43:18;18.30;99.90
1083;DHT22;530;51.448;7.238;2022-07-29T04:45:43;18.30;99.90
1083;DHT22;530;51.448;7.238;2022-07-29T04:48:09;18.30;99.90
1083;DHT22;530;51.448;7.238;2022-07-29T04:50:38;18.30;99.90
1083;DHT22;530;51.448;7.238;2022-07-29T04:53:03;18.20;99.90
1083;DHT22;530;51.448;7.238;2022-07-29T04:55:29;18.20;99.90
1083;DHT22;530;51.448;7.238;2022-07-29T04:57:55;18.20;99.90
1083;DHT22;530;51.448;7.238;2022-07-29T05:00:20;18.30;99.90
1083;DHT22;530;51.448;7.238;2022-07-29T05:02:48;18.30;99.90
1083;DHT22;530;51.448;7.238;2022-07-29T05:05:14;18.30;99.90
1083;DHT22;530;51.448;7.238;2022-07-29T05:07:40;18.20;99.90
1083;DHT22;530;51.448;7.238;2022-07-29T05:10:07;18.30;99.90
1083;DHT22;530;51.448;7.238;2022-07-29T05:12:32;18.20;99.90
1083;DHT22;530;51.448;7.238;2022-07-29T05:14:58;18.20;99.90
1083;DHT22;530;51.448;7.238;2022-07-29T05:17:25;18.20;99.90
1083;DHT22;530;51.448;7.238;2022-07-29T05:19:51;18.20;99.90
1083;DHT22;530;51.448;7.238;2022-07-29T05:22:19;18.20;99.90
1083;DHT22;530;51.448;7.238;2022-07-29T05:24:45;18.20;99.90
1083;DHT22;530;51.448;7.238;2022-07-29T05:27:11;18.20;99.90
1083;DHT22;530;51.448;7.238;2022-07-29T05:29:36;18.30;99.90
1083;DHT22;530;51.448;7.238;2022-07-29T05:32:03;18.30;99.90
1083;DHT22;530;51.448;7.238;2022-07-29T05:34:29;18.40;99.90
1083;DHT22;530;51.448;7.238;2022-07-29T05:36:55;18.40;99.90
1083;DHT22;530;51.448;7.238;2022-07-29T05:39:20;18.40;99.90
1083;DHT22;530;51.448;7.238;2022-07-29T05:41:46;18.40;99.90
1083;DHT22;530;51.448;7.238;2022-07-29T05:44:12;18.40;99.90
1083;DHT22;530;51.448;7.238;2022-07-29T05:46:39;18.40;99.90
1083;DHT22;530;51.448;7.238;2022-07-29T05:49:05;18.30;99.90
1083;DHT22;530;51.448;7.238;2022-07-29T05:51:32;18.30;99.90
1083;DHT22;530;51.448;7.238;2022-07-29T05:53:58;18.30;99.90
1083;DHT22;530;51.448;7.238;2022-07-29T05:56:24;18.30;99.90
1083;DHT22;530;51.448;7.238;2022-07-29T05:58:50;18.20;99.90
1083;DHT22;530;51.448;7.238;2022-07-29T06:01:16;18.20;99.90
1083;DHT22;530;51.448;7.238;2022-07-29T06:03:42;18.20;99.90
1083;DHT22;530;51.448;7.238;2022-07-29T06:06:08;18.30;99.90
1083;DHT22;530;51.448;7.238;2022-07-29T06:08:34;18.30;99.90
1083;DHT22;530;51.448;7.238;2022-07-29T06:11:01;18.30;99.90
1083;DHT22;530;51.448;7.238;2022-07-29T06:13:27;18.30;99.90
1083;DHT22;530;51.448;7.238;2022-07-29T06:15:53;18.40;99.90
1083;DHT22;530;51.448;7.238;2022-07-29T06:18:19;18.50;99.90
1083;DHT22;530;51.448;7.238;2022-07-29T06:20:46;18.60;99.90
1083;DHT22;530;51.448;7.238;2022-07-29T06:23:12;18.70;99.90
1083;DHT22;530;51.448;7.238;2022-07-29T06:25:40;18.70;99.90
1083;DHT22;530;51.448;7.238;2022-07-29T06:28:05;18.70;99.90
1083;DHT22;530;51.448;7.238;2022-07-29T06:30:31;18.80;99.90
1083;DHT22;530;51.448;7.238;2022-07-29T06:32:57;18.80;99.90
1083;DHT22;530;51.448;7.238;2022-07-29T06:35:23;18.80;99.90
1083;DHT22;530;51.448;7.238;2022-07-29T06:37:49;18.80;99.90
1083;DHT22;530;51.448;7.238;2022-07-29T06:40:14;18.80;99.90
1083;DHT22;530;51.448;7.238;2022-07-29T06:42:59;18.70;99.90
1083;DHT22;530;51.448;7.238;2022-07-29T06:45:24;18.70;99.90
1083;DHT22;530;51.448;7.238;2022-07-29T06:47:50;18.60;99.90
1083;DHT22;530;51.448;7.238;2022-07-29T06:50:16;18.80;99.90
1083;DHT22;530;51.448;7.238;2022-07-29T06:52:42;18.70;99.90
1083;DHT22;530;51.448;7.238;2022-07-29T06:55:08;18.70;99.90
1083;DHT22;530;51.448;7.238;2022-07-29T06:57:34;18.70;99.90
1083;DHT22;530;51.448;7.238;2022-07-29T07:00:00;18.70;99.90
1083;DHT22;530;51.448;7.238;2022-07-29T07:02:26;18.60;99.90
1083;DHT22;530;51.448;7.238;2022-07-29T07:04:52;18.70;99.90
1083;DHT22;530;51.448;7.238;2022-07-29T07:07:18;18.70;99.90
1083;DHT22;530;51.448;7.238;2022-07-29T07:09:44;18.70;99.90
1083;DHT22;530;51.448;7.238;2022-07-29T07:12:09;18.70;99.90
1083;DHT22;530;51.448;7.238;2022-07-29T07:14:35;18.80;99.90
1083;DHT22;530;51.448;7.238;2022-07-29T07:17:01;19.00;99.90
1083;DHT22;530;51.448;7.238;2022-07-29T07:19:29;19.00;99.90
1083;DHT22;530;51.448;7.238;2022-07-29T07:21:55;19.20;99.90
1083;DHT22;530;51.448;7.238;2022-07-29T07:24:21;19.40;99.90
1083;DHT22;530;51.448;7.238;2022-07-29T07:26:46;19.60;99.90
1083;DHT22;530;51.448;7.238;2022-07-29T07:29:12;19.70;99.90
1083;DHT22;530;51.448;7.238;2022-07-29T07:31:38;19.90;99.90
1083;DHT22;530;51.448;7.238;2022-07-29T07:34:04;19.90;99.90
1083;DHT22;530;51.448;7.238;2022-07-29T07:36:30;19.80;99.90
1083;DHT22;530;51.448;7.238;2022-07-29T07:38:55;19.80;99.90
1083;DHT22;530;51.448;7.238;2022-07-29T07:41:21;19.80;99.90
1083;DHT22;530;51.448;7.238;2022-07-29T07:43:47;19.70;99.90
1083;DHT22;530;51.448;7.238;2022-07-29T07:46:13;19.70;99.90
1083;DHT22;530;51.448;7.238;2022-07-29T07:48:39;19.60;99.90
1083;DHT22;530;51.448;7.238;2022-07-29T07:51:04;19.50;99.90
1083;DHT22;530;51.448;7.238;2022-07-29T07:53:30;19.40;99.90
1083;DHT22;530;51.448;7.238;2022-07-29T07:55:56;19.40;99.90
1083;DHT22;530;51.448;7.238;2022-07-29T07:58:21;19.30;99.90
1083;DHT22;530;51.448;7.238;2022-07-29T08:00:47;19.30;99.90
1083;DHT22;530;51.448;7.238;2022-07-29T08:03:13;19.20;99.90
1083;DHT22;530;51.448;7.238;2022-07-29T08:05:40;19.20;99.90
1083;DHT22;530;51.448;7.238;2022-07-29T08:08:06;19.20;99.90
1083;DHT22;530;51.448;7.238;2022-07-29T08:10:32;19.20;99.90
1083;DHT22;530;51.448;7.238;2022-07-29T08:13:16;19.30;99.90
1083;DHT22;530;51.448;7.238;2022-07-29T08:15:42;19.20;99.90
1083;DHT22;530;51.448;7.238;2022-07-29T08:18:10;19.30;99.90
1083;DHT22;530;51.448;7.238;2022-07-29T08:20:36;19.30;99.90
1083;DHT22;530;51.448;7.238;2022-07-29T08:23:04;19.30;99.90
1083;DHT22;530;51.448;7.238;2022-07-29T08:25:32;19.40;99.90
1083;DHT22;530;51.448;7.238;2022-07-29T08:27:58;19.50;99.90
1083;DHT22;530;51.448;7.238;2022-07-29T08:30:24;19.70;99.90
1083;DHT22;530;51.448;7.238;2022-07-29T08:32:50;19.80;99.90
1083;DHT22;530;51.448;7.238;2022-07-29T08:35:19;19.90;99.90
1083;DHT22;530;51.448;7.238;2022-07-29T08:37:45;20.00;99.90
1083;DHT22;530;51.448;7.238;2022-07-29T08:40:11;20.00;99.90
1083;DHT22;530;51.448;7.238;2022-07-29T08:42:37;20.00;99.90
1083;DHT22;530;51.448;7.238;2022-07-29T08:45:04;20.00;99.90
1083;DHT22;530;51.448;7.238;2022-07-29T08:47:30;20.10;99.90
1083;DHT22;530;51.448;7.238;2022-07-29T08:49:55;20.10;99.90
1083;DHT22;530;51.448;7.238;2022-07-29T08:52:26;20.00;99.90
1083;DHT22;530;51.448;7.238;2022-07-29T08:54:53;20.00;99.90
1083;DHT22;530;51.448;7.238;2022-07-29T08:57:20;20.00;99.90
1083;DHT22;530;51.448;7.238;2022-07-29T08:59:47;20.00;99.90
1083;DHT22;530;51.448;7.238;2022-07-29T09:02:26;20.00;99.90
1083;DHT22;530;51.448;7.238;2022-07-29T09:04:53;19.90;99.90
1083;DHT22;530;51.448;7.238;2022-07-29T09:07:19;19.90;99.90
1083;DHT22;530;51.448;7.238;2022-07-29T09:09:45;19.90;99.90
1083;DHT22;530;51.448;7.238;2022-07-29T09:12:12;19.90;99.90
1083;DHT22;530;51.448;7.238;2022-07-29T09:14:38;19.90;99.90
1083;DHT22;530;51.448;7.238;2022-07-29T09:17:05;19.90;99.90
1083;DHT22;530;51.448;7.238;2022-07-29T09:19:33;20.00;99.90
1083;DHT22;530;51.448;7.238;2022-07-29T09:22:01;20.00;99.90
1083;DHT22;530;51.448;7.238;2022-07-29T09:24:40;20.00;99.90
1083;DHT22;530;51.448;7.238;2022-07-29T09:27:20;20.10;99.90
1083;DHT22;530;51.448;7.238;2022-07-29T09:30:03;20.10;99.90
1083;DHT22;530;51.448;7.238;2022-07-29T09:32:29;20.20;99.90
1083;DHT22;530;51.448;7.238;2022-07-29T09:35:17;20.20;99.90
1083;DHT22;530;51.448;7.238;2022-07-29T09:37:44;20.20;99.90
1083;DHT22;530;51.448;7.238;2022-07-29T09:40:15;20.20;99.90
1083;DHT22;530;51.448;7.238;2022-07-29T09:42:41;20.10;99.90
1083;DHT22;530;51.448;7.238;2022-07-29T09:45:07;20.10;99.90
1083;DHT22;530;51.448;7.238;2022-07-29T09:47:46;20.00;99.90
1083;DHT22;530;51.448;7.238;2022-07-29T09:50:17;20.00;99.90
1083;DHT22;530;51.448;7.238;2022-07-29T09:52:50;19.80;99.90
1083;DHT22;530;51.448;7.238;2022-07-29T09:55:17;19.80;99.90
1083;DHT22;530;51.448;7.238;2022-07-29T09:57:43;19.80;99.90
1083;DHT22;530;51.448;7.238;2022-07-29T10:00:18;19.70;99.90
1083;DHT22;530;51.448;7.238;2022-07-29T10:02:46;19.80;99.90
1083;DHT22;530;51.448;7.238;2022-07-29T10:05:25;19.80;99.90
1083;DHT22;530;51.448;7.238;2022-07-29T10:07:57;19.80;99.90
1083;DHT22;530;51.448;7.238;2022-07-29T10:10:33;19.80;99.90
1083;DHT22;530;51.448;7.238;2022-07-29T10:13:01;19.80;99.90
1083;DHT22;530;51.448;7.238;2022-07-29T10:15:29;19.70;99.90
1083;DHT22;530;51.448;7.238;2022-07-29T10:17:56;19.70;99.90
1083;DHT22;530;51.448;7.238;2022-07-29T10:20:23;19.60;99.90
1083;DHT22;530;51.448;7.238;2022-07-29T10:22:50;19.60;99.90
1083;DHT22;530;51.448;7.238;2022-07-29T10:25:17;19.60;99.90
1083;DHT22;530;51.448;7.238;2022-07-29T10:27:44;19.50;99.90
1083;DHT22;530;51.448;7.238;2022-07-29T10:30:11;19.50;99.90
1083;DHT22;530;51.448;7.238;2022-07-29T10:35:26;19.50;99.90
1083;DHT22;530;51.448;7.238;2022-07-29T10:40:57;19.40;99.90
1083;DHT22;530;51.448;7.238;2022-07-29T10:43:46;19.50;99.90
1083;DHT22;530;51.448;7.238;2022-07-29T10:46:13;19.40;99.90
1083;DHT22;530;51.448;7.238;2022-07-29T10:57:27;19.60;99.90
1083;DHT22;530;51.448;7.238;2022-07-29T11:07:25;19.50;99.90
1083;DHT22;530;51.448;7.238;2022-07-29T11:15:13;19.60;99.90
1083;DHT22;530;51.448;7.238;2022-07-29T11:20:41;19.60;99.90
1083;DHT22;530;51.448;7.238;2022-07-29T11:23:28;19.60;99.90
1083;DHT22;530;51.448;7.238;2022-07-29T11:29:18;19.60;99.90
1083;DHT22;530;51.448;7.238;2022-07-29T11:31:46;19.60;99.90
1083;DHT22;530;51.448;7.238;2022-07-29T11:34:31;19.60;99.90
1083;DHT22;530;51.448;7.238;2022-07-29T11:47:25;19.80;99.90
1083;DHT22;530;51.448;7.238;2022-07-29T11:49:51;19.80;99.90
1083;DHT22;530;51.448;7.238;2022-07-29T11:52:18;19.90;99.90
1083;DHT22;530;51.448;7.238;2022-07-29T11:54:47;19.90;99.90
1083;DHT22;530;51.448;7.238;2022-07-29T11:57:16;20.00;99.90
1083;DHT22;530;51.448;7.238;2022-07-29T11:59:43;20.00;99.90
1083;DHT22;530;51.448;7.238;2022-07-29T12:02:10;20.10;99.90
1083;DHT22;530;51.448;7.238;2022-07-29T12:04:53;20.20;99.90
1083;DHT22;530;51.448;7.238;2022-07-29T12:07:27;20.40;99.90
1083;DHT22;530;51.448;7.238;2022-07-29T12:09:53;20.60;99.90
1083;DHT22;530;51.448;7.238;2022-07-29T12:12:21;20.60;99.90
1083;DHT22;530;51.448;7.238;2022-07-29T12:14:47;20.60;99.90
1083;DHT22;530;51.448;7.238;2022-07-29T12:17:31;20.70;99.90
1083;DHT22;530;51.448;7.238;2022-07-29T12:20:02;20.70;99.90
1083;DHT22;530;51.448;7.238;2022-07-29T12:22:29;20.80;99.90
1083;DHT22;530;51.448;7.238;2022-07-29T12:25:01;20.90;99.90
1083;DHT22;530;51.448;7.238;2022-07-29T12:27:28;20.90;99.90
1083;DHT22;530;51.448;7.238;2022-07-29T12:29:58;20.90;99.90
1083;DHT22;530;51.448;7.238;2022-07-29T12:32:34;20.90;99.90
1083;DHT22;530;51.448;7.238;2022-07-29T12:35:13;21.00;99.90
1083;DHT22;530;51.448;7.238;2022-07-29T12:37:41;21.10;99.90
1083;DHT22;530;51.448;7.238;2022-07-29T12:40:09;21.20;99.90
1083;DHT22;530;51.448;7.238;2022-07-29T12:42:35;21.20;99.90
1083;DHT22;530;51.448;7.238;2022-07-29T12:45:01;21.30;99.90
1083;DHT22;530;51.448;7.238;2022-07-29T12:47:28;21.30;99.90
1083;DHT22;530;51.448;7.238;2022-07-29T12:50:11;21.40;99.90
1083;DHT22;530;51.448;7.238;2022-07-29T12:52:37;21.50;99.90
1083;DHT22;530;51.448;7.238;2022-07-29T12:55:03;21.60;99.90
1083;DHT22;530;51.448;7.238;2022-07-29T12:57:30;21.70;99.90
1083;DHT22;530;51.448;7.238;2022-07-29T13:02:30;22.00;99.90
1083;DHT22;530;51.448;7.238;2022-07-29T13:05:00;22.10;99.90
1083;DHT22;530;51.448;7.238;2022-07-29T13:07:28;22.20;99.90
1083;DHT22;530;51.448;7.238;2022-07-29T13:10:13;22.30;99.90
1083;DHT22;530;51.448;7.238;2022-07-29T13:13:07;22.30;99.90
1083;DHT22;530;51.448;7.238;2022-07-29T13:15:36;22.30;99.90
1083;DHT22;530;51.448;7.238;2022-07-29T13:18:02;22.40;99.90
1083;DHT22;530;51.448;7.238;2022-07-29T13:20:29;22.40;99.90
1083;DHT22;530;51.448;7.238;2022-07-29T13:22:56;22.40;99.90
1083;DHT22;530;51.448;7.238;2022-07-29T13:25:31;22.50;99.90
1083;DHT22;530;51.448;7.238;2022-07-29T13:27:58;22.50;99.90
1083;DHT22;530;51.448;7.238;2022-07-29T13:30:24;22.60;99.90
1083;DHT22;530;51.448;7.238;2022-07-29T13:32:54;22.70;99.90
1083;DHT22;530;51.448;7.238;2022-07-29T13:35:20;22.80;99.90
1083;DHT22;530;51.448;7.238;2022-07-29T13:37:46;22.80;99.90
1083;DHT22;530;51.448;7.238;2022-07-29T13:40:12;22.80;99.90
1083;DHT22;530;51.448;7.238;2022-07-29T13:42:39;22.80;99.90
1083;DHT22;530;51.448;7.238;2022-07-29T13:45:06;22.80;99.90
1083;DHT22;530;51.448;7.238;2022-07-29T13:47:32;22.80;99.90
1083;DHT22;530;51.448;7.238;2022-07-29T13:50:02;22.80;99.90
1083;DHT22;530;51.448;7.238;2022-07-29T13:52:28;22.90;99.90
1083;DHT22;530;51.448;7.238;2022-07-29T13:54:55;23.00;99.90
1083;DHT22;530;51.448;7.238;2022-07-29T13:57:21;23.10;99.90
1083;DHT22;530;51.448;7.238;2022-07-29T13:59:46;23.20;99.90
1083;DHT22;530;51.448;7.238;2022-07-29T14:02:12;23.20;99.90
1083;DHT22;530;51.448;7.238;2022-07-29T14:04:39;23.20;99.90
1083;DHT22;530;51.448;7.238;2022-07-29T14:07:05;23.20;99.90
1083;DHT22;530;51.448;7.238;2022-07-29T14:09:31;23.20;99.90
1083;DHT22;530;51.448;7.238;2022-07-29T14:11:57;23.30;99.90
1083;DHT22;530;51.448;7.238;2022-07-29T14:14:23;23.40;99.90
1083;DHT22;530;51.448;7.238;2022-07-29T14:16:49;23.50;99.90
1083;DHT22;530;51.448;7.238;2022-07-29T14:19:15;23.60;99.90
1083;DHT22;530;51.448;7.238;2022-07-29T14:21:41;23.70;99.90
1083;DHT22;530;51.448;7.238;2022-07-29T14:24:06;23.80;99.90
1083;DHT22;530;51.448;7.238;2022-07-29T14:26:32;23.90;99.90
1083;DHT22;530;51.448;7.238;2022-07-29T14:28:58;23.90;99.90
1083;DHT22;530;51.448;7.238;2022-07-29T14:31:24;23.90;99.90
1083;DHT22;530;51.448;7.238;2022-07-29T14:33:49;24.00;99.90
1083;DHT22;530;51.448;7.238;2022-07-29T14:36:15;24.00;99.90
1083;DHT22;530;51.448;7.238;2022-07-29T14:38:41;24.10;99.90
1083;DHT22;530;51.448;7.238;2022-07-29T14:41:07;24.10;99.90
1083;DHT22;530;51.448;7.238;2022-07-29T14:43:34;24.10;99.60
1083;DHT22;530;51.448;7.238;2022-07-29T14:46:00;24.10;99.90
1083;DHT22;530;51.448;7.238;2022-07-29T14:48:26;24.10;99.90
1083;DHT22;530;51.448;7.238;2022-07-29T14:50:52;24.20;99.90
1083;DHT22;530;51.448;7.238;2022-07-29T14:53:18;24.20;99.90
1083;DHT22;530;51.448;7.238;2022-07-29T14:55:44;24.20;99.90
1083;DHT22;530;51.448;7.238;2022-07-29T14:58:10;24.30;99.90
1083;DHT22;530;51.448;7.238;2022-07-29T15:00:36;24.30;99.40
1083;DHT22;530;51.448;7.238;2022-07-29T15:03:02;24.40;98.90
1083;DHT22;530;51.448;7.238;2022-07-29T15:05:31;24.40;99.90
1083;DHT22;530;51.448;7.238;2022-07-29T15:07:57;24.40;99.90
1083;DHT22;530;51.448;7.238;2022-07-29T15:10:24;24.50;99.20
1083;DHT22;530;51.448;7.238;2022-07-29T15:12:52;24.50;98.80
1083;DHT22;530;51.448;7.238;2022-07-29T15:15:18;24.50;98.50
1083;DHT22;530;51.448;7.238;2022-07-29T15:17:44;24.40;98.70
1083;DHT22;530;51.448;7.238;2022-07-29T15:20:10;24.40;98.30
1083;DHT22;530;51.448;7.238;2022-07-29T15:22:37;24.40;99.10
1083;DHT22;530;51.448;7.238;2022-07-29T15:25:04;24.30;99.30
1083;DHT22;530;51.448;7.238;2022-07-29T15:27:30;24.40;97.50
1083;DHT22;530;51.448;7.238;2022-07-29T15:29:56;24.20;98.20
1083;DHT22;530;51.448;7.238;2022-07-29T15:32:22;24.10;98.60
1083;DHT22;530;51.448;7.238;2022-07-29T15:34:48;24.10;99.60
1083;DHT22;530;51.448;7.238;2022-07-29T15:37:14;24.00;99.50
1083;DHT22;530;51.448;7.238;2022-07-29T15:39:40;24.00;99.40
1083;DHT22;530;51.448;7.238;2022-07-29T15:42:06;24.10;98.60
1083;DHT22;530;51.448;7.238;2022-07-29T15:44:31;24.20;99.40
1083;DHT22;530;51.448;7.238;2022-07-29T15:46:58;24.20;99.40
1083;DHT22;530;51.448;7.238;2022-07-29T15:49:35;24.20;99.00
1083;DHT22;530;51.448;7.238;2022-07-29T15:52:06;24.20;98.90
1083;DHT22;530;51.448;7.238;2022-07-29T15:54:37;24.20;98.50
1083;DHT22;530;51.448;7.238;2022-07-29T15:57:09;24.20;98.60
1083;DHT22;530;51.448;7.238;2022-07-29T15:59:42;24.20;98.40
1083;DHT22;530;51.448;7.238;2022-07-29T16:02:08;24.20;98.80
1083;DHT22;530;51.448;7.238;2022-07-29T16:04:33;24.20;99.00
1083;DHT22;530;51.448;7.238;2022-07-29T16:06:59;24.20;99.70
1083;DHT22;530;51.448;7.238;2022-07-29T16:09:25;24.10;99.80
1083;DHT22;530;51.448;7.238;2022-07-29T16:11:52;24.10;99.90
1083;DHT22;530;51.448;7.238;2022-07-29T16:14:19;24.10;99.90
1083;DHT22;530;51.448;7.238;2022-07-29T16:16:45;24.10;99.90
1083;DHT22;530;51.448;7.238;2022-07-29T16:19:11;24.20;99.80
1083;DHT22;530;51.448;7.238;2022-07-29T16:21:37;24.20;99.90
1083;DHT22;530;51.448;7.238;2022-07-29T16:24:04;24.10;99.90
1083;DHT22;530;51.448;7.238;2022-07-29T16:26:30;24.20;99.90
1083;DHT22;530;51.448;7.238;2022-07-29T16:28:56;24.20;99.90
1083;DHT22;530;51.448;7.238;2022-07-29T16:31:22;24.20;99.90
1083;DHT22;530;51.448;7.238;2022-07-29T16:33:54;24.20;99.90
1083;DHT22;530;51.448;7.238;2022-07-29T16:36:20;24.20;99.90
1083;DHT22;530;51.448;7.238;2022-07-29T16:38:46;24.20;99.90
1083;DHT22;530;51.448;7.238;2022-07-29T16:41:12;24.10;99.90
1083;DHT22;530;51.448;7.238;2022-07-29T16:43:38;24.10;99.90
1083;DHT22;530;51.448;7.238;2022-07-29T16:46:07;24.20;99.90
1083;DHT22;530;51.448;7.238;2022-07-29T16:48:34;24.20;99.90
1083;DHT22;530;51.448;7.238;2022-07-29T16:51:00;24.20;99.90
1083;DHT22;530;51.448;7.238;2022-07-29T16:53:26;24.20;99.90
1083;DHT22;530;51.448;7.238;2022-07-29T16:55:51;24.20;99.90
1083;DHT22;530;51.448;7.238;2022-07-29T16:58:17;24.20;99.90
1083;DHT22;530;51.448;7.238;2022-07-29T17:00:43;24.20;99.90
1083;DHT22;530;51.448;7.238;2022-07-29T17:03:09;24.10;99.90
1083;DHT22;530;51.448;7.238;2022-07-29T17:05:34;24.10;99.90
1083;DHT22;530;51.448;7.238;2022-07-29T17:08:00;24.10;99.90
1083;DHT22;530;51.448;7.238;2022-07-29T17:10:26;24.10;99.90
1083;DHT22;530;51.448;7.238;2022-07-29T17:12:54;24.10;99.90
1083;DHT22;530;51.448;7.238;2022-07-29T17:15:20;24.10;99.90
1083;DHT22;530;51.448;7.238;2022-07-29T17:17:46;24.10;99.90
1083;DHT22;530;51.448;7.238;2022-07-29T17:20:13;24.10;99.90